Time;durP1;ratioP1;P1;durP2;ratioP2;P2;SDS_P1;SDS_P2;PMS_P1;PMS_P2;Temp;Humidity;BMP_temperature;BMP_pressure;BME280_temperature;BME280_humidity;BME280_pressure;Samples;Min_cycle;Max_cycle;Signal;HPM_P1;HPM_P2
2021/05/26 00:00:20;;;;;;;6.00;4.40;;;18.40;72.50;;;;;;5076794;28;20025;-69
2021/05/26 00:02:46;;;;;;;4.95;4.10;;;18.40;72.50;;;;;;5088019;28;20016;-69
2021/05/26 00:05:12;;;;;;;5.43;4.20;;;18.40;72.50;;;;;;5077700;28;20460;-69
2021/05/26 00:07:37;;;;;;;5.68;4.32;;;18.30;72.50;;;;;;5094522;28;20502;-69
2021/05/26 00:10:05;;;;;;;6.85;4.10;;;18.30;72.60;;;;;;5084196;28;20583;-69
2021/05/26 00:12:30;;;;;;;6.38;4.10;;;18.40;72.90;;;;;;5081887;28;20044;-69
2021/05/26 00:14:56;;;;;;;4.65;4.18;;;18.40;72.80;;;;;;5089890;28;20063;-69
2021/05/26 00:17:22;;;;;;;5.35;4.05;;;18.40;72.70;;;;;;5086456;28;20094;-69
2021/05/26 00:19:48;;;;;;;5.45;4.03;;;18.40;72.60;;;;;;5083837;28;20027;-69
2021/05/26 00:22:14;;;;;;;5.18;4.20;;;18.40;72.80;;;;;;5088331;28;20391;-69
2021/05/26 00:24:39;;;;;;;5.13;4.15;;;18.40;73.60;;;;;;5082947;28;20476;-69
2021/05/26 00:27:05;;;;;;;5.53;4.18;;;18.40;72.80;;;;;;5080251;28;20478;-69
2021/05/26 00:29:31;;;;;;;6.72;4.50;;;18.40;72.90;;;;;;5092409;28;20085;-69
2021/05/26 00:31:56;;;;;;;5.32;4.25;;;18.40;73.60;;;;;;5085371;28;20020;-69
2021/05/26 00:34:22;;;;;;;7.82;3.70;;;18.40;73.00;;;;;;5079017;28;20052;-69
2021/05/26 00:36:48;;;;;;;6.53;3.95;;;18.40;72.90;;;;;;5077064;28;20032;-69
2021/05/26 00:39:13;;;;;;;4.35;3.83;;;18.40;73.00;;;;;;5078380;28;20077;-69
2021/05/26 00:41:39;;;;;;;5.15;4.07;;;18.40;72.90;;;;;;5086092;28;20024;-69
2021/05/26 00:44:05;;;;;;;5.80;3.88;;;18.40;73.00;;;;;;5077710;28;20482;-69
2021/05/26 00:46:39;;;;;;;4.38;3.95;;;18.40;72.70;;;;;;5086592;28;20564;-69
2021/05/26 00:49:05;;;;;;;4.93;3.92;;;18.40;72.50;;;;;;5087460;28;20016;-69
2021/05/26 00:51:30;;;;;;;4.72;4.05;;;18.40;72.70;;;;;;5084663;28;20021;-69
2021/05/26 00:53:56;;;;;;;5.22;3.95;;;18.50;72.50;;;;;;5080565;28;20431;-69
2021/05/26 00:56:21;;;;;;;4.55;4.07;;;18.50;72.50;;;;;;5086408;28;20111;-69
2021/05/26 00:58:47;;;;;;;7.82;5.03;;;18.50;72.60;;;;;;5085855;28;20016;-69
2021/05/26 01:01:13;;;;;;;9.15;5.70;;;18.50;72.50;;;;;;5089352;28;20166;-69
2021/05/26 01:03:39;;;;;;;8.55;6.57;;;18.40;72.50;;;;;;5074321;28;20059;-69
2021/05/26 01:06:06;;;;;;;13.00;6.95;;;18.40;72.60;;;;;;5084496;28;20533;-69
2021/05/26 01:08:32;;;;;;;11.57;7.38;;;18.40;72.70;;;;;;5081849;28;20027;-69
2021/05/26 01:10:57;;;;;;;14.60;8.23;;;18.40;72.70;;;;;;5080552;28;20025;-69
2021/05/26 01:13:25;;;;;;;13.93;9.38;;;18.40;72.80;;;;;;5079878;28;20020;-69
2021/05/26 01:15:50;;;;;;;23.17;12.73;;;18.40;72.90;;;;;;5089940;28;20024;-69
2021/05/26 01:18:25;;;;;;;33.90;17.88;;;18.40;72.80;;;;;;5085857;28;20080;-69
2021/05/26 01:20:53;;;;;;;37.67;18.15;;;18.40;72.70;;;;;;5082115;28;20027;-69
2021/05/26 01:23:18;;;;;;;24.25;13.80;;;18.40;72.90;;;;;;5081164;28;20422;-69
2021/05/26 01:25:53;;;;;;;23.02;12.35;;;18.40;72.80;;;;;;5075394;28;20040;-69
2021/05/26 01:28:20;;;;;;;30.27;14.70;;;18.40;72.90;;;;;;5087372;28;20013;-69
2021/05/26 01:30:46;;;;;;;23.55;12.93;;;18.40;73.10;;;;;;5089763;28;20016;-69
2021/05/26 01:33:12;;;;;;;19.48;10.45;;;18.40;73.80;;;;;;5088821;28;20016;-69
2021/05/26 01:35:40;;;;;;;15.88;9.85;;;18.40;73.40;;;;;;5087839;28;20085;-69
2021/05/26 01:38:05;;;;;;;12.60;8.75;;;18.30;73.30;;;;;;5056048;28;20481;-69
2021/05/26 01:40:31;;;;;;;11.35;7.63;;;18.30;73.40;;;;;;5075879;28;20056;-69
2021/05/26 01:42:57;;;;;;;10.23;6.65;;;18.30;73.60;;;;;;5087852;28;20052;-69
2021/05/26 01:45:22;;;;;;;7.78;6.20;;;18.20;73.60;;;;;;5092204;28;20392;-69
2021/05/26 01:47:49;;;;;;;8.45;6.55;;;18.20;73.60;;;;;;5086849;28;20031;-69
2021/05/26 01:50:21;;;;;;;10.95;6.03;;;18.20;73.90;;;;;;5082419;28;20381;-69
2021/05/26 01:53:05;;;;;;;6.90;5.57;;;18.10;74.10;;;;;;5087316;28;20022;-69
2021/05/26 01:55:32;;;;;;;6.18;5.55;;;18.10;74.20;;;;;;5078719;28;20020;-69
2021/05/26 01:57:59;;;;;;;6.88;5.80;;;18.10;74.40;;;;;;5075534;28;20119;-69
2021/05/26 02:00:25;;;;;;;7.28;5.63;;;18.00;74.60;;;;;;5088808;28;20028;-69
2021/05/26 02:02:51;;;;;;;8.05;5.60;;;18.00;74.50;;;;;;5058297;28;20086;-69
2021/05/26 02:05:17;;;;;;;7.82;6.07;;;18.00;74.70;;;;;;5085916;28;20016;-69
2021/05/26 02:07:44;;;;;;;6.30;5.13;;;18.00;74.80;;;;;;5083274;28;20020;-69
2021/05/26 02:10:12;;;;;;;9.13;5.15;;;18.00;74.80;;;;;;5083601;28;20421;-69
2021/05/26 02:12:39;;;;;;;7.18;5.18;;;17.90;74.80;;;;;;5080080;28;20056;-69
2021/05/26 02:15:10;;;;;;;7.03;5.38;;;18.00;74.80;;;;;;5084496;28;20029;-69
2021/05/26 02:17:36;;;;;;;5.88;5.25;;;18.00;74.90;;;;;;5080416;28;20056;-69
2021/05/26 02:20:04;;;;;;;6.22;5.10;;;18.00;74.90;;;;;;5082895;28;20037;-69
2021/05/26 02:22:29;;;;;;;8.30;5.25;;;18.00;74.90;;;;;;5080703;28;20082;-69
2021/05/26 02:24:55;;;;;;;7.30;5.25;;;18.00;74.80;;;;;;5078627;28;20033;-69
2021/05/26 02:27:21;;;;;;;5.93;5.03;;;18.10;74.80;;;;;;5073572;28;20126;-69
2021/05/26 02:29:46;;;;;;;5.38;4.82;;;18.10;75.00;;;;;;5080743;28;20019;-69
2021/05/26 02:32:12;;;;;;;7.38;5.70;;;18.10;75.00;;;;;;5083005;28;20523;-69
2021/05/26 02:34:39;;;;;;;7.28;5.18;;;18.10;74.80;;;;;;5077628;28;20017;-69
2021/05/26 02:37:06;;;;;;;8.13;5.45;;;18.20;75.10;;;;;;5085291;28;20028;-69
2021/05/26 02:39:32;;;;;;;8.50;5.60;;;18.20;74.90;;;;;;5072637;28;20032;-69
2021/05/26 02:41:57;;;;;;;5.10;4.60;;;18.20;74.80;;;;;;5082628;28;20033;-69
2021/05/26 02:44:23;;;;;;;7.18;4.90;;;18.30;75.00;;;;;;5076321;28;20384;-69
2021/05/26 02:46:49;;;;;;;6.28;5.00;;;18.30;75.50;;;;;;5080091;28;20399;-69
2021/05/26 02:49:16;;;;;;;8.32;5.15;;;18.30;75.50;;;;;;5087165;28;20016;-69
2021/05/26 02:51:41;;;;;;;5.47;4.80;;;18.40;74.70;;;;;;5092240;28;20073;-69
2021/05/26 02:54:08;;;;;;;6.30;4.50;;;18.40;74.50;;;;;;5081299;28;20058;-69
2021/05/26 02:56:34;;;;;;;8.50;4.57;;;18.50;74.40;;;;;;5086381;28;20483;-69
2021/05/26 02:59:00;;;;;;;6.05;5.35;;;18.60;74.40;;;;;;5087921;28;20024;-69
2021/05/26 03:01:26;;;;;;;5.10;4.20;;;18.60;74.10;;;;;;5084197;28;20091;-69
2021/05/26 03:03:51;;;;;;;6.75;4.72;;;18.70;74.00;;;;;;5077397;28;20104;-69
2021/05/26 03:06:17;;;;;;;8.35;4.53;;;18.80;73.90;;;;;;5083085;28;20460;-69
2021/05/26 03:08:43;;;;;;;5.25;4.40;;;18.80;73.70;;;;;;5082767;28;20021;-69
2021/05/26 03:11:09;;;;;;;5.28;4.38;;;18.90;73.60;;;;;;5089980;28;20034;-69
2021/05/26 03:13:34;;;;;;;5.45;4.00;;;19.00;73.50;;;;;;5085297;28;20024;-69
2021/05/26 03:16:02;;;;;;;5.25;4.50;;;19.00;73.50;;;;;;5089296;28;20032;-69
2021/05/26 03:18:29;;;;;;;7.25;5.15;;;19.10;73.20;;;;;;5082286;28;20032;-69
2021/05/26 03:20:55;;;;;;;4.93;4.20;;;19.20;73.30;;;;;;5062298;28;20025;-69
2021/05/26 03:23:21;;;;;;;5.60;4.72;;;19.30;73.50;;;;;;5080248;28;20491;-69
2021/05/26 03:25:47;;;;;;;6.75;4.78;;;19.50;73.90;;;;;;5092815;28;20511;-69
2021/05/26 03:28:17;;;;;;;4.65;4.07;;;19.70;74.40;;;;;;5085203;28;20074;-69
2021/05/26 03:30:44;;;;;;;5.63;4.25;;;19.90;74.40;;;;;;5090092;28;20498;-69
2021/05/26 03:33:12;;;;;;;8.40;4.28;;;20.20;74.40;;;;;;5079771;28;20019;-69
2021/05/26 03:35:39;;;;;;;6.78;4.25;;;20.50;74.30;;;;;;5089931;28;20572;-69
2021/05/26 03:38:05;;;;;;;5.38;3.97;;;20.90;73.70;;;;;;5085553;28;20028;-69
2021/05/26 03:40:31;;;;;;;8.10;4.43;;;21.30;72.50;;;;;;5084544;28;20023;-69
2021/05/26 03:42:57;;;;;;;5.20;4.00;;;21.80;71.40;;;;;;5076827;28;20116;-69
2021/05/26 03:45:22;;;;;;;5.50;4.75;;;22.30;69.60;;;;;;5090102;28;20476;-69
2021/05/26 03:47:48;;;;;;;7.88;4.43;;;23.00;67.70;;;;;;5085503;28;20104;-69
2021/05/26 03:50:14;;;;;;;6.60;4.30;;;23.70;65.80;;;;;;5077847;28;20032;-69
2021/05/26 03:52:45;;;;;;;7.13;4.07;;;24.50;63.60;;;;;;5091713;28;20027;-70
2021/05/26 03:55:14;;;;;;;7.60;4.28;;;25.40;61.40;;;;;;5090017;28;20414;-70
2021/05/26 03:57:40;;;;;;;5.90;4.20;;;26.20;59.40;;;;;;5080754;28;20022;-70
2021/05/26 04:00:08;;;;;;;5.00;3.55;;;27.00;57.70;;;;;;5085373;28;20035;-70
2021/05/26 04:02:34;;;;;;;6.45;4.10;;;27.70;56.50;;;;;;5093288;28;20024;-70
2021/05/26 04:05:00;;;;;;;4.50;3.60;;;28.50;55.50;;;;;;5086696;28;20051;-70
2021/05/26 04:07:26;;;;;;;5.50;3.55;;;29.00;54.10;;;;;;5085105;28;20020;-70
2021/05/26 04:09:51;;;;;;;5.05;3.97;;;29.50;52.60;;;;;;5087820;28;20174;-71
2021/05/26 04:12:18;;;;;;;6.30;4.22;;;29.80;51.30;;;;;;5086632;28;20483;-71
2021/05/26 04:14:44;;;;;;;6.45;4.43;;;30.20;50.50;;;;;;5083550;28;20052;-71
2021/05/26 04:17:09;;;;;;;5.53;3.60;;;30.60;49.80;;;;;;5098123;28;20020;-71
2021/05/26 04:19:35;;;;;;;6.65;4.07;;;31.10;49.10;;;;;;5081443;28;20490;-71
2021/05/26 04:22:01;;;;;;;8.27;4.80;;;31.40;48.50;;;;;;5094719;28;20031;-71
2021/05/26 04:24:26;;;;;;;7.55;5.10;;;31.80;48.20;;;;;;5083335;28;20483;-71
2021/05/26 04:26:52;;;;;;;6.18;4.30;;;32.30;47.80;;;;;;5080265;28;20108;-71
2021/05/26 04:29:19;;;;;;;6.30;5.25;;;32.60;47.20;;;;;;5079956;28;20027;-71
2021/05/26 04:31:45;;;;;;;10.27;7.07;;;32.90;46.40;;;;;;5090250;28;20496;-72
2021/05/26 04:34:11;;;;;;;7.82;5.82;;;33.10;45.80;;;;;;5081845;28;20024;-72
2021/05/26 04:36:37;;;;;;;7.47;5.80;;;33.30;45.30;;;;;;5089794;28;20361;-72
2021/05/26 04:39:03;;;;;;;9.18;7.10;;;33.40;45.00;;;;;;5091792;28;20020;-72
2021/05/26 04:41:28;;;;;;;14.48;8.02;;;33.50;44.60;;;;;;5089316;28;20472;-72
2021/05/26 04:43:54;;;;;;;16.98;10.38;;;33.70;44.70;;;;;;5081520;28;20255;-72
2021/05/26 04:46:20;;;;;;;14.10;10.27;;;33.90;44.40;;;;;;5081575;28;20050;-72
2021/05/26 04:48:45;;;;;;;12.15;8.93;;;34.10;44.00;;;;;;5089770;28;20095;-72
2021/05/26 04:51:11;;;;;;;12.88;8.75;;;34.20;43.80;;;;;;5071192;28;20076;-72
2021/05/26 04:53:36;;;;;;;11.15;8.15;;;34.10;43.40;;;;;;5080892;28;20091;-72
2021/05/26 04:56:03;;;;;;;10.85;7.72;;;34.00;43.40;;;;;;5077350;28;20035;-72
2021/05/26 04:58:28;;;;;;;11.13;8.27;;;34.00;43.50;;;;;;5085395;28;20477;-72
2021/05/26 05:00:54;;;;;;;12.85;8.00;;;33.90;43.30;;;;;;5082734;28;20103;-72
2021/05/26 05:03:20;;;;;;;11.07;8.05;;;33.90;43.30;;;;;;5090793;28;20106;-72
2021/05/26 05:05:45;;;;;;;11.65;8.00;;;34.00;43.10;;;;;;5081767;28;20028;-73
2021/05/26 05:08:11;;;;;;;9.07;6.95;;;34.10;43.30;;;;;;5087958;28;20055;-73
2021/05/26 05:10:36;;;;;;;9.38;5.82;;;34.40;43.50;;;;;;5093711;28;20376;-73
2021/05/26 05:13:03;;;;;;;10.15;6.03;;;34.60;43.20;;;;;;5089584;28;20051;-73
2021/05/26 05:15:28;;;;;;;8.18;5.53;;;34.80;42.70;;;;;;5079409;28;20020;-73
2021/05/26 05:17:55;;;;;;;7.85;5.75;;;34.80;42.20;;;;;;5092283;28;20065;-73
2021/05/26 05:20:21;;;;;;;10.05;5.72;;;34.70;42.00;;;;;;5081784;28;20380;-73
2021/05/26 05:22:56;;;;;;;8.70;6.03;;;34.30;41.80;;;;;;5088171;28;20476;-73
2021/05/26 05:25:22;;;;;;;6.90;5.80;;;33.80;42.40;;;;;;5084799;28;20376;-73
2021/05/26 05:27:48;;;;;;;8.02;5.82;;;33.10;42.70;;;;;;5086901;28;20107;-54
2021/05/26 05:30:15;;;;;;;7.45;5.50;;;32.40;43.90;;;;;;5083625;28;20115;-54
2021/05/26 05:32:40;;;;;;;7.03;5.30;;;31.70;45.10;;;;;;5084227;28;20024;-55
2021/05/26 05:35:08;;;;;;;7.60;5.88;;;31.00;46.00;;;;;;5080126;28;20737;-55
2021/05/26 05:37:33;;;;;;;8.52;6.25;;;30.50;47.00;;;;;;5081164;28;20037;-54
2021/05/26 05:39:59;;;;;;;7.63;6.57;;;29.90;47.70;;;;;;5080537;28;20032;-52
2021/05/26 05:42:26;;;;;;;9.95;8.02;;;29.40;48.00;;;;;;5077769;28;20059;-56
2021/05/26 05:44:52;;;;;;;8.93;7.18;;;28.90;49.00;;;;;;5078584;28;20050;-56
2021/05/26 05:47:18;;;;;;;10.13;7.10;;;28.50;50.00;;;;;;5081416;28;20028;-56
2021/05/26 05:49:43;;;;;;;9.45;6.43;;;28.30;50.60;;;;;;5080324;28;20032;-56
2021/05/26 05:52:10;;;;;;;8.80;7.03;;;28.10;51.30;;;;;;5075344;28;20032;-56
2021/05/26 05:54:37;;;;;;;8.35;6.97;;;27.90;51.70;;;;;;5079846;28;20028;-55
2021/05/26 05:57:03;;;;;;;13.23;5.85;;;27.70;52.60;;;;;;5080123;28;20510;-56
2021/05/26 05:59:30;;;;;;;7.85;5.20;;;27.50;51.40;;;;;;5081808;28;20123;-56
2021/05/26 06:01:56;;;;;;;9.82;5.78;;;27.30;50.70;;;;;;5078122;28;20119;-56
2021/05/26 06:04:21;;;;;;;9.63;6.32;;;27.10;51.60;;;;;;5082850;28;20233;-51
2021/05/26 06:06:47;;;;;;;8.00;4.10;;;27.00;52.70;;;;;;5083296;28;20031;-53
2021/05/26 06:09:13;;;;;;;7.95;6.28;;;27.00;51.00;;;;;;5086577;28;20020;-54
2021/05/26 06:11:38;;;;;;;8.45;6.63;;;26.90;52.50;;;;;;5086087;28;20042;-53
2021/05/26 06:14:06;;;;;;;6.70;4.60;;;26.80;52.80;;;;;;5087738;28;20064;-52
2021/05/26 06:16:36;;;;;;;7.70;3.20;;;26.70;51.30;;;;;;5087250;28;20036;-52
2021/05/26 06:19:02;;;;;;;4.72;3.58;;;26.60;50.50;;;;;;5084388;28;20024;-54
2021/05/26 06:21:28;;;;;;;15.82;7.70;;;26.50;49.90;;;;;;5083208;28;20059;-55
2021/05/26 06:23:54;;;;;;;14.50;7.88;;;26.40;49.30;;;;;;5082232;28;20115;-54
2021/05/26 06:26:19;;;;;;;11.23;8.20;;;26.40;50.70;;;;;;5080207;28;20040;-54
2021/05/26 06:28:45;;;;;;;7.95;6.75;;;26.30;53.00;;;;;;5078840;28;20476;-54
2021/05/26 06:31:11;;;;;;;8.57;6.30;;;26.20;53.50;;;;;;5078689;28;20019;-53
2021/05/26 06:33:36;;;;;;;7.30;5.00;;;26.00;54.30;;;;;;5079724;28;20063;-54
2021/05/26 06:36:02;;;;;;;6.60;5.88;;;25.90;55.30;;;;;;5078757;28;20399;-54
2021/05/26 06:38:28;;;;;;;10.00;5.75;;;25.70;56.00;;;;;;5082068;28;20082;-52
2021/05/26 06:40:53;;;;;;;8.07;5.68;;;25.70;56.70;;;;;;5084119;28;20024;-51
2021/05/26 06:43:19;;;;;;;5.65;5.05;;;25.50;56.90;;;;;;5079553;28;20150;-57
2021/05/26 06:45:45;;;;;;;7.53;5.45;;;25.50;57.30;;;;;;5081757;28;20064;-55
2021/05/26 06:48:11;;;;;;;5.68;5.15;;;25.40;58.30;;;;;;5080245;28;20036;-54
2021/05/26 06:50:36;;;;;;;5.05;4.30;;;25.30;58.80;;;;;;5076349;28;20128;-54
2021/05/26 06:53:02;;;;;;;5.47;4.97;;;25.20;58.70;;;;;;5080238;28;20559;-53
2021/05/26 06:55:28;;;;;;;6.00;4.78;;;25.00;58.40;;;;;;5084830;28;20426;-53
2021/05/26 06:57:54;;;;;;;5.85;5.22;;;24.90;58.90;;;;;;5074996;28;20033;-54
2021/05/26 07:00:19;;;;;;;4.97;4.35;;;24.80;59.90;;;;;;5072376;28;20522;-55
2021/05/26 07:02:45;;;;;;;6.47;5.15;;;24.80;60.30;;;;;;5070155;28;20160;-54
2021/05/26 07:05:11;;;;;;;7.95;5.15;;;24.80;60.00;;;;;;5075783;28;20039;-54
2021/05/26 07:07:37;;;;;;;5.30;4.55;;;24.70;60.20;;;;;;5077706;28;20040;-50
2021/05/26 07:10:04;;;;;;;6.00;5.00;;;24.60;60.70;;;;;;5073262;28;20031;-61
2021/05/26 07:12:30;;;;;;;5.22;4.63;;;24.50;60.80;;;;;;5067347;28;20147;-62
2021/05/26 07:14:56;;;;;;;8.82;5.75;;;24.40;61.30;;;;;;5073916;28;20028;-64
2021/05/26 07:17:22;;;;;;;6.30;5.35;;;24.40;61.50;;;;;;5076995;28;20039;-64
2021/05/26 07:19:47;;;;;;;6.13;5.43;;;24.30;61.60;;;;;;5075726;28;20484;-63
2021/05/26 07:22:13;;;;;;;6.68;5.97;;;24.20;61.40;;;;;;5071588;28;20067;-64
2021/05/26 07:24:39;;;;;;;10.77;6.90;;;24.20;62.00;;;;;;5072401;28;20051;-63
2021/05/26 07:27:05;;;;;;;8.20;7.13;;;24.10;62.90;;;;;;5073561;28;20040;-62
2021/05/26 07:29:31;;;;;;;10.60;7.78;;;24.00;63.20;;;;;;5065146;28;20032;-61
2021/05/26 07:31:56;;;;;;;9.68;7.80;;;23.90;63.80;;;;;;5064917;28;20024;-62
2021/05/26 07:34:22;;;;;;;10.15;7.22;;;23.80;64.40;;;;;;5072368;28;20740;-58
2021/05/26 07:36:48;;;;;;;10.73;7.25;;;23.80;64.40;;;;;;5075355;28;20054;-60
2021/05/26 07:39:13;;;;;;;8.02;7.22;;;23.70;64.70;;;;;;5069731;28;20043;-60
2021/05/26 07:41:39;;;;;;;9.38;6.72;;;23.60;65.00;;;;;;5075807;28;20028;-62
2021/05/26 07:44:05;;;;;;;8.90;8.00;;;23.60;65.10;;;;;;5073877;28;20422;-61
2021/05/26 07:46:30;;;;;;;11.73;8.52;;;23.60;65.60;;;;;;5071546;28;20051;-61
2021/05/26 07:48:56;;;;;;;12.15;9.05;;;23.60;66.20;;;;;;5077220;28;20033;-62
2021/05/26 07:51:30;;;;;;;10.82;8.35;;;23.50;65.90;;;;;;5075006;28;20012;-62
2021/05/26 07:53:56;;;;;;;13.40;9.05;;;23.50;66.40;;;;;;5083106;28;20388;-62
2021/05/26 07:56:23;;;;;;;15.60;9.82;;;23.60;66.30;;;;;;5075351;28;20515;-62
2021/05/26 07:58:49;;;;;;;10.40;7.95;;;23.60;66.60;;;;;;5071607;28;21703;-58
2021/05/26 08:01:14;;;;;;;13.88;9.77;;;23.60;66.50;;;;;;5054966;28;20034;-61
2021/05/26 08:03:40;;;;;;;10.57;8.68;;;23.60;66.10;;;;;;5069558;28;20036;-60
2021/05/26 08:06:06;;;;;;;10.48;8.35;;;23.60;66.10;;;;;;5056955;28;20047;-60
2021/05/26 08:08:34;;;;;;;10.48;8.85;;;23.70;66.20;;;;;;5063161;28;20032;-60
2021/05/26 08:11:00;;;;;;;10.07;7.65;;;23.60;66.10;;;;;;5069204;28;20083;-61
2021/05/26 08:13:26;;;;;;;11.02;8.02;;;23.50;66.00;;;;;;5059234;28;20780;-60
2021/05/26 08:15:52;;;;;;;9.02;7.90;;;23.50;66.80;;;;;;5069707;28;20032;-61
2021/05/26 08:18:20;;;;;;;10.15;8.65;;;23.40;67.10;;;;;;5065484;28;20043;-60
2021/05/26 08:20:47;;;;;;;9.80;8.20;;;23.30;66.90;;;;;;5068312;28;20032;-60
2021/05/26 08:23:16;;;;;;;12.65;8.85;;;23.30;67.30;;;;;;5070280;28;20028;-60
2021/05/26 08:25:42;;;;;;;9.88;7.93;;;23.40;67.60;;;;;;5049167;28;20054;-60
2021/05/26 08:28:08;;;;;;;11.25;8.10;;;23.40;67.90;;;;;;5066847;28;20036;-61
2021/05/26 08:30:34;;;;;;;10.68;7.85;;;23.60;67.70;;;;;;5067643;28;20502;-60
2021/05/26 08:33:00;;;;;;;7.32;6.38;;;23.70;67.00;;;;;;5067419;28;20052;-61
2021/05/26 08:35:26;;;;;;;8.68;7.32;;;23.80;66.70;;;;;;5072635;28;20185;-62
2021/05/26 08:37:53;;;;;;;9.13;8.23;;;23.80;66.00;;;;;;5072297;28;20036;-60
2021/05/26 08:40:19;;;;;;;10.38;9.10;;;23.80;66.30;;;;;;5076393;28;20752;-61
2021/05/26 08:42:45;;;;;;;10.68;7.93;;;23.90;66.50;;;;;;5076557;28;20384;-60
2021/05/26 08:45:13;;;;;;;12.15;8.45;;;23.90;66.70;;;;;;5073525;28;20048;-61
2021/05/26 08:47:43;;;;;;;12.10;9.18;;;23.90;66.90;;;;;;5069053;28;20032;-60
2021/05/26 08:50:09;;;;;;;9.40;7.95;;;24.00;67.20;;;;;;5071543;28;20059;-60
2021/05/26 08:52:35;;;;;;;7.95;5.88;;;24.00;66.40;;;;;;5071472;28;20067;-60
2021/05/26 08:55:01;;;;;;;13.15;6.82;;;24.00;65.90;;;;;;5076161;28;20540;-58
2021/05/26 08:57:27;;;;;;;9.95;5.97;;;24.10;65.30;;;;;;5064170;28;22387;-59
2021/05/26 08:59:53;;;;;;;9.07;5.28;;;24.20;64.80;;;;;;5065467;28;20040;-60
2021/05/26 09:02:19;;;;;;;9.98;5.45;;;24.30;63.40;;;;;;5070039;28;20595;-60
2021/05/26 09:04:44;;;;;;;6.47;5.00;;;24.50;62.40;;;;;;5074789;28;20094;-60
2021/05/26 09:07:15;;;;;;;5.20;4.45;;;24.60;62.30;;;;;;5074829;28;20388;-60
2021/05/26 09:09:52;;;;;;;5.80;4.47;;;24.70;61.80;;;;;;5076322;28;20063;-60
2021/05/26 09:12:33;;;;;;;5.53;4.70;;;24.80;61.10;;;;;;5074006;28;20077;-60
2021/05/26 09:15:10;;;;;;;5.28;4.78;;;24.80;60.30;;;;;;5076193;28;20027;-60
2021/05/26 09:17:36;;;;;;;5.03;4.28;;;24.90;60.90;;;;;;5076650;28;20456;-60
2021/05/26 09:20:29;;;;;;;6.47;5.07;;;24.90;59.70;;;;;;5068441;28;20097;-62
2021/05/26 09:23:21;;;;;;;7.70;4.32;;;25.00;59.90;;;;;;5069054;28;20035;-58
2021/05/26 09:25:47;;;;;;;5.15;4.65;;;25.00;60.80;;;;;;5070413;28;20070;-60
2021/05/26 09:28:20;;;;;;;5.28;4.47;;;25.00;61.40;;;;;;5072808;28;20509;-61
2021/05/26 09:30:55;;;;;;;4.55;3.78;;;25.00;60.90;;;;;;5075649;28;20479;-61
2021/05/26 09:33:24;;;;;;;6.78;4.80;;;25.00;60.40;;;;;;5076873;28;20032;-55
2021/05/26 09:36:12;;;;;;;7.03;5.60;;;25.00;60.20;;;;;;5072726;28;20020;-58
2021/05/26 09:38:48;;;;;;;5.03;4.53;;;25.00;60.90;;;;;;5073170;28;20028;-58
2021/05/26 09:41:30;;;;;;;5.80;4.68;;;25.00;61.40;;;;;;5069490;28;20425;-60
2021/05/26 09:44:10;;;;;;;5.15;4.57;;;24.90;62.00;;;;;;5069963;28;20039;-60
2021/05/26 09:46:37;;;;;;;5.15;4.65;;;24.70;62.40;;;;;;5051792;28;20048;-61
2021/05/26 09:49:18;;;;;;;5.28;4.78;;;24.70;62.70;;;;;;5070522;28;20041;-60
2021/05/26 09:51:51;;;;;;;6.70;4.70;;;24.50;63.40;;;;;;5073219;28;20035;-62
2021/05/26 09:54:26;;;;;;;7.13;4.78;;;24.50;63.40;;;;;;5070015;28;21107;-60
2021/05/26 09:57:07;;;;;;;6.68;4.45;;;24.40;63.50;;;;;;5072857;28;20101;-62
2021/05/26 09:59:34;;;;;;;5.53;3.78;;;24.40;63.20;;;;;;5071139;28;20060;-60
2021/05/26 10:02:05;;;;;;;4.93;3.88;;;24.40;63.30;;;;;;5072405;28;20115;-60
2021/05/26 10:04:31;;;;;;;4.40;4.00;;;24.30;63.30;;;;;;5072887;28;20150;-60
2021/05/26 10:06:59;;;;;;;5.20;4.43;;;24.30;63.30;;;;;;5071474;28;20122;-60
2021/05/26 10:09:25;;;;;;;5.90;5.20;;;24.20;63.40;;;;;;5073021;28;21859;-61
2021/05/26 10:11:55;;;;;;;6.65;4.95;;;24.10;64.10;;;;;;5077859;28;20107;-60
2021/05/26 10:14:23;;;;;;;5.93;4.60;;;24.20;64.40;;;;;;5074167;28;20035;-61
2021/05/26 10:16:51;;;;;;;5.38;4.88;;;24.20;64.20;;;;;;5076642;28;20039;-59
2021/05/26 10:19:17;;;;;;;4.78;4.05;;;24.20;63.50;;;;;;5075317;28;20658;-60
2021/05/26 10:21:47;;;;;;;5.68;4.38;;;24.10;63.40;;;;;;5069879;28;20484;-61
2021/05/26 10:24:17;;;;;;;6.18;5.07;;;24.20;63.00;;;;;;5070892;28;20383;-61
2021/05/26 10:29:29;;;;;;;5.63;4.88;;;24.20;63.80;;;;;;5071925;28;20039;-60
2021/05/26 10:32:13;;;;;;;6.07;4.60;;;24.10;63.70;;;;;;5072114;28;20034;-61
2021/05/26 10:34:42;;;;;;;5.25;4.45;;;24.10;64.30;;;;;;5077174;28;20036;-62
2021/05/26 10:37:11;;;;;;;5.40;4.90;;;24.10;64.10;;;;;;5076621;28;20026;-62
2021/05/26 10:39:37;;;;;;;4.70;4.30;;;24.10;64.10;;;;;;5069051;28;20164;-61
2021/05/26 10:42:04;;;;;;;4.38;3.97;;;24.10;63.60;;;;;;5071668;28;20068;-61
2021/05/26 10:45:04;;;;;;;7.28;4.60;;;24.10;63.60;;;;;;5073088;28;20032;-62
2021/05/26 10:47:36;;;;;;;5.10;4.00;;;24.10;64.40;;;;;;5078600;28;20047;-62
2021/05/26 10:50:35;;;;;;;4.80;4.10;;;24.00;63.60;;;;;;5077832;28;20296;-62
2021/05/26 10:53:01;;;;;;;5.38;4.88;;;23.90;63.90;;;;;;5076144;28;20502;-61
2021/05/26 10:55:36;;;;;;;5.30;4.55;;;23.90;64.60;;;;;;5080650;28;20028;-61
2021/05/26 10:58:14;;;;;;;4.88;4.38;;;23.80;64.50;;;;;;5081942;28;20036;-64
2021/05/26 11:00:41;;;;;;;5.53;4.82;;;23.70;64.60;;;;;;5079931;28;20047;-64
2021/05/26 11:05:57;;;;;;;6.28;4.80;;;23.60;65.00;;;;;;5079028;28;20492;-64
2021/05/26 11:08:53;;;;;;;7.57;4.70;;;23.60;65.60;;;;;;5083507;28;20020;-60
2021/05/26 11:11:24;;;;;;;5.05;4.55;;;23.60;65.80;;;;;;5060679;28;20581;-63
2021/05/26 11:14:13;;;;;;;5.10;4.45;;;23.60;65.50;;;;;;5077972;28;20027;-64
2021/05/26 11:16:45;;;;;;;4.90;4.40;;;23.70;65.20;;;;;;5072292;28;20670;-63
2021/05/26 11:19:13;;;;;;;9.57;4.50;;;23.60;64.60;;;;;;5078099;28;20039;-64
2021/05/26 11:21:40;;;;;;;5.20;4.50;;;23.60;65.20;;;;;;5072216;28;20035;-63
2021/05/26 11:24:06;;;;;;;6.93;4.55;;;23.70;65.20;;;;;;5071488;28;20031;-63
2021/05/26 11:26:35;;;;;;;5.10;4.47;;;23.60;65.30;;;;;;5065508;28;20684;-63
2021/05/26 11:29:04;;;;;;;5.82;4.57;;;23.60;65.80;;;;;;5075558;28;20024;-62
2021/05/26 11:31:30;;;;;;;4.65;4.25;;;23.40;66.00;;;;;;5072582;28;20535;-62
2021/05/26 11:33:57;;;;;;;5.13;4.35;;;23.40;66.50;;;;;;5072299;28;20028;-62
2021/05/26 11:36:42;;;;;;;7.65;4.57;;;23.30;66.40;;;;;;5076020;28;20091;-60
2021/05/26 11:39:17;;;;;;;7.00;4.60;;;23.30;66.40;;;;;;5075538;28;20031;-64
2021/05/26 11:41:42;;;;;;;5.65;4.60;;;23.30;66.10;;;;;;5076865;28;20028;-67
2021/05/26 11:44:09;;;;;;;4.70;4.30;;;23.30;65.80;;;;;;5055215;28;20480;-62
2021/05/26 11:46:35;;;;;;;5.90;5.00;;;23.30;65.80;;;;;;5070612;28;20048;-61
2021/05/26 11:49:09;;;;;;;6.13;5.00;;;23.40;65.70;;;;;;5070285;28;20035;-65
2021/05/26 11:51:37;;;;;;;6.10;4.65;;;23.40;66.00;;;;;;5073910;28;20048;-55
2021/05/26 11:54:03;;;;;;;6.47;4.78;;;23.40;65.80;;;;;;5077766;28;20112;-66
2021/05/26 11:56:29;;;;;;;4.90;4.40;;;23.40;65.50;;;;;;5074037;28;20418;-63
2021/05/26 11:58:55;;;;;;;5.90;4.40;;;23.40;66.20;;;;;;5068118;28;20036;-62
2021/05/26 12:01:29;;;;;;;5.47;4.97;;;23.30;66.50;;;;;;5073414;28;20036;-63
2021/05/26 12:03:57;;;;;;;5.07;4.10;;;23.30;67.00;;;;;;5069713;28;20078;-63
2021/05/26 12:06:23;;;;;;;5.13;4.63;;;23.20;66.40;;;;;;5074754;28;20028;-63
2021/05/26 12:08:50;;;;;;;5.50;4.72;;;23.10;66.00;;;;;;5078053;28;20138;-64
2021/05/26 12:11:22;;;;;;;5.68;4.82;;;23.10;66.20;;;;;;5073850;28;20039;-60
2021/05/26 12:13:49;;;;;;;7.22;5.00;;;23.10;66.00;;;;;;5071508;28;20028;-62
2021/05/26 12:16:20;;;;;;;5.55;5.05;;;23.10;66.60;;;;;;5066070;28;20094;-63
2021/05/26 12:18:58;;;;;;;5.25;4.30;;;23.10;66.80;;;;;;5069730;28;20032;-63
2021/05/26 12:21:30;;;;;;;5.50;4.57;;;23.10;67.30;;;;;;5069484;28;20063;-62
2021/05/26 12:24:01;;;;;;;5.88;4.95;;;23.00;66.90;;;;;;5073540;28;20036;-66
2021/05/26 12:26:37;;;;;;;6.85;4.78;;;23.00;67.40;;;;;;5063039;28;20499;-57
2021/05/26 12:29:09;;;;;;;6.03;4.88;;;23.00;66.90;;;;;;5049713;28;20727;-63
2021/05/26 12:31:35;;;;;;;4.97;4.18;;;23.00;67.10;;;;;;5070378;28;20524;-63
2021/05/26 12:34:02;;;;;;;5.55;5.00;;;23.10;66.80;;;;;;5070124;28;20085;-64
2021/05/26 12:36:29;;;;;;;4.90;4.35;;;23.10;66.90;;;;;;5064848;28;20533;-64
2021/05/26 12:39:03;;;;;;;6.35;4.60;;;23.20;66.10;;;;;;5070956;28;20074;-62
2021/05/26 12:41:32;;;;;;;5.20;4.70;;;23.20;65.80;;;;;;5069748;28;20526;-62
2021/05/26 12:44:18;;;;;;;5.93;4.93;;;23.30;65.40;;;;;;5068766;28;20123;-63
2021/05/26 12:46:51;;;;;;;5.63;5.03;;;23.30;65.50;;;;;;5059368;28;20052;-64
2021/05/26 12:49:34;;;;;;;6.25;4.82;;;23.30;66.10;;;;;;5065496;28;20032;-61
2021/05/26 12:52:04;;;;;;;6.30;4.78;;;23.40;65.90;;;;;;5069039;28;20052;-61
2021/05/26 12:54:40;;;;;;;5.45;4.82;;;23.50;65.70;;;;;;5072216;28;20078;-60